sensor_id;sensor_type;location;lat;lon;timestamp;P1;durP1;ratioP1;P2;durP2;ratioP2
81894;SDS011;76753;45.642;13.758;2024-03-02T00:02:06;4.32;;;2.95;;
81894;SDS011;76753;45.642;13.758;2024-03-02T00:04:51;5.60;;;2.90;;
81894;SDS011;76753;45.642;13.758;2024-03-02T00:07:35;3.92;;;2.65;;
81894;SDS011;76753;45.642;13.758;2024-03-02T00:10:20;3.53;;;2.22;;
81894;SDS011;76753;45.642;13.758;2024-03-02T00:13:12;4.55;;;2.70;;
81894;SDS011;76753;45.642;13.758;2024-03-02T00:15:57;3.85;;;2.53;;
81894;SDS011;76753;45.642;13.758;2024-03-02T00:18:42;3.28;;;2.47;;
81894;SDS011;76753;45.642;13.758;2024-03-02T00:21:27;3.33;;;2.20;;
81894;SDS011;76753;45.642;13.758;2024-03-02T00:27:30;5.15;;;2.35;;
81894;SDS011;76753;45.642;13.758;2024-03-02T00:30:35;5.50;;;2.55;;
81894;SDS011;76753;45.642;13.758;2024-03-02T00:33:34;7.82;;;2.50;;
81894;SDS011;76753;45.642;13.758;2024-03-02T00:36:26;5.07;;;2.55;;
81894;SDS011;76753;45.642;13.758;2024-03-02T00:39:17;4.25;;;2.65;;
81894;SDS011;76753;45.642;13.758;2024-03-02T00:42:02;4.05;;;2.70;;
81894;SDS011;76753;45.642;13.758;2024-03-02T00:44:46;6.97;;;2.88;;
81894;SDS011;76753;45.642;13.758;2024-03-02T00:47:31;4.40;;;2.67;;
81894;SDS011;76753;45.642;13.758;2024-03-02T00:50:16;5.15;;;3.03;;
81894;SDS011;76753;45.642;13.758;2024-03-02T00:53:01;6.38;;;3.00;;
81894;SDS011;76753;45.642;13.758;2024-03-02T00:55:46;4.10;;;2.50;;
81894;SDS011;76753;45.642;13.758;2024-03-02T00:58:31;4.25;;;2.80;;
81894;SDS011;76753;45.642;13.758;2024-03-02T01:01:16;4.65;;;2.92;;
81894;SDS011;76753;45.642;13.758;2024-03-02T01:04:01;3.95;;;2.42;;
81894;SDS011;76753;45.642;13.758;2024-03-02T01:06:45;3.72;;;2.60;;
81894;SDS011;76753;45.642;13.758;2024-03-02T01:09:30;4.63;;;3.75;;
81894;SDS011;76753;45.642;13.758;2024-03-02T01:12:14;2.97;;;2.65;;
81894;SDS011;76753;45.642;13.758;2024-03-02T01:14:59;4.97;;;2.70;;
81894;SDS011;76753;45.642;13.758;2024-03-02T01:17:43;3.95;;;2.78;;
81894;SDS011;76753;45.642;13.758;2024-03-02T01:20:28;3.40;;;2.80;;
81894;SDS011;76753;45.642;13.758;2024-03-02T01:23:12;6.95;;;2.70;;
81894;SDS011;76753;45.642;13.758;2024-03-02T01:25:57;4.80;;;2.88;;
81894;SDS011;76753;45.642;13.758;2024-03-02T01:28:42;4.35;;;3.10;;
81894;SDS011;76753;45.642;13.758;2024-03-02T01:31:26;3.40;;;2.60;;
81894;SDS011;76753;45.642;13.758;2024-03-02T01:34:11;4.10;;;2.53;;
81894;SDS011;76753;45.642;13.758;2024-03-02T01:36:56;5.78;;;2.75;;
81894;SDS011;76753;45.642;13.758;2024-03-02T01:39:41;4.18;;;2.53;;
81894;SDS011;76753;45.642;13.758;2024-03-02T01:42:25;4.68;;;2.53;;
81894;SDS011;76753;45.642;13.758;2024-03-02T01:45:10;4.88;;;2.30;;
81894;SDS011;76753;45.642;13.758;2024-03-02T01:47:55;3.13;;;2.60;;
81894;SDS011;76753;45.642;13.758;2024-03-02T01:50:39;3.38;;;2.45;;
81894;SDS011;76753;45.642;13.758;2024-03-02T01:53:24;2.85;;;2.40;;
81894;SDS011;76753;45.642;13.758;2024-03-02T01:56:08;4.28;;;2.88;;
81894;SDS011;76753;45.642;13.758;2024-03-02T01:58:53;4.13;;;2.85;;
81894;SDS011;76753;45.642;13.758;2024-03-02T02:01:37;3.60;;;2.55;;
81894;SDS011;76753;45.642;13.758;2024-03-02T02:04:22;2.78;;;2.28;;
81894;SDS011;76753;45.642;13.758;2024-03-02T02:07:10;3.55;;;2.70;;
81894;SDS011;76753;45.642;13.758;2024-03-02T02:09:55;2.65;;;2.30;;
81894;SDS011;76753;45.642;13.758;2024-03-02T02:12:39;3.42;;;2.40;;
81894;SDS011;76753;45.642;13.758;2024-03-02T02:15:30;2.90;;;2.08;;
81894;SDS011;76753;45.642;13.758;2024-03-02T02:18:15;4.15;;;2.55;;
81894;SDS011;76753;45.642;13.758;2024-03-02T02:21:00;3.92;;;2.40;;
81894;SDS011;76753;45.642;13.758;2024-03-02T02:23:45;5.80;;;2.58;;
81894;SDS011;76753;45.642;13.758;2024-03-02T02:26:32;2.80;;;2.50;;
81894;SDS011;76753;45.642;13.758;2024-03-02T02:29:16;3.10;;;2.45;;
81894;SDS011;76753;45.642;13.758;2024-03-02T02:32:01;4.15;;;2.47;;
81894;SDS011;76753;45.642;13.758;2024-03-02T02:34:46;4.80;;;2.92;;
81894;SDS011;76753;45.642;13.758;2024-03-02T02:37:30;2.88;;;2.50;;
81894;SDS011;76753;45.642;13.758;2024-03-02T02:40:15;3.05;;;2.80;;
81894;SDS011;76753;45.642;13.758;2024-03-02T02:43:00;3.35;;;2.40;;
81894;SDS011;76753;45.642;13.758;2024-03-02T02:45:44;2.33;;;2.13;;
81894;SDS011;76753;45.642;13.758;2024-03-02T02:48:29;2.85;;;2.53;;
81894;SDS011;76753;45.642;13.758;2024-03-02T02:51:13;2.95;;;2.33;;
81894;SDS011;76753;45.642;13.758;2024-03-02T02:53:58;3.65;;;2.42;;
81894;SDS011;76753;45.642;13.758;2024-03-02T02:56:43;3.00;;;2.50;;
81894;SDS011;76753;45.642;13.758;2024-03-02T02:59:27;3.03;;;2.30;;
81894;SDS011;76753;45.642;13.758;2024-03-02T03:02:12;2.65;;;2.42;;
81894;SDS011;76753;45.642;13.758;2024-03-02T03:04:56;3.15;;;1.85;;
81894;SDS011;76753;45.642;13.758;2024-03-02T03:07:41;2.22;;;1.92;;
81894;SDS011;76753;45.642;13.758;2024-03-02T03:10:28;2.20;;;2.00;;
81894;SDS011;76753;45.642;13.758;2024-03-02T03:13:12;3.25;;;2.05;;
81894;SDS011;76753;45.642;13.758;2024-03-02T03:15:57;4.00;;;1.98;;
81894;SDS011;76753;45.642;13.758;2024-03-02T03:18:41;2.70;;;2.30;;
81894;SDS011;76753;45.642;13.758;2024-03-02T03:21:26;2.78;;;2.17;;
81894;SDS011;76753;45.642;13.758;2024-03-02T03:24:10;2.60;;;2.40;;
81894;SDS011;76753;45.642;13.758;2024-03-02T03:26:55;4.38;;;2.50;;
81894;SDS011;76753;45.642;13.758;2024-03-02T03:29:39;2.05;;;1.85;;
81894;SDS011;76753;45.642;13.758;2024-03-02T03:32:24;2.58;;;2.10;;
81894;SDS011;76753;45.642;13.758;2024-03-02T03:35:09;3.47;;;2.03;;
81894;SDS011;76753;45.642;13.758;2024-03-02T03:37:53;3.30;;;1.95;;
81894;SDS011;76753;45.642;13.758;2024-03-02T03:40:38;2.33;;;2.13;;
81894;SDS011;76753;45.642;13.758;2024-03-02T03:43:22;2.97;;;2.00;;
81894;SDS011;76753;45.642;13.758;2024-03-02T03:46:07;4.30;;;2.40;;
81894;SDS011;76753;45.642;13.758;2024-03-02T03:48:52;2.20;;;1.98;;
81894;SDS011;76753;45.642;13.758;2024-03-02T03:51:36;2.85;;;2.00;;
81894;SDS011;76753;45.642;13.758;2024-03-02T03:54:21;2.38;;;2.05;;
81894;SDS011;76753;45.642;13.758;2024-03-02T03:57:05;2.50;;;1.85;;
81894;SDS011;76753;45.642;13.758;2024-03-02T03:59:50;2.28;;;1.70;;
81894;SDS011;76753;45.642;13.758;2024-03-02T04:02:35;3.08;;;2.13;;
81894;SDS011;76753;45.642;13.758;2024-03-02T04:05:20;2.17;;;1.83;;
81894;SDS011;76753;45.642;13.758;2024-03-02T04:08:04;4.95;;;2.08;;
81894;SDS011;76753;45.642;13.758;2024-03-02T04:10:49;2.45;;;2.03;;
81894;SDS011;76753;45.642;13.758;2024-03-02T04:13:34;2.00;;;1.80;;
81894;SDS011;76753;45.642;13.758;2024-03-02T04:16:18;2.40;;;1.88;;
81894;SDS011;76753;45.642;13.758;2024-03-02T04:19:03;2.60;;;1.45;;
81894;SDS011;76753;45.642;13.758;2024-03-02T04:21:47;3.25;;;1.65;;
81894;SDS011;76753;45.642;13.758;2024-03-02T04:24:32;1.73;;;1.63;;
81894;SDS011;76753;45.642;13.758;2024-03-02T04:27:16;2.63;;;1.52;;
81894;SDS011;76753;45.642;13.758;2024-03-02T04:30:01;3.45;;;1.90;;
81894;SDS011;76753;45.642;13.758;2024-03-02T04:32:47;1.60;;;1.48;;
81894;SDS011;76753;45.642;13.758;2024-03-02T04:35:32;1.58;;;1.48;;
81894;SDS011;76753;45.642;13.758;2024-03-02T04:38:17;2.67;;;1.65;;
81894;SDS011;76753;45.642;13.758;2024-03-02T04:41:03;1.48;;;1.27;;
81894;SDS011;76753;45.642;13.758;2024-03-02T04:43:50;1.60;;;1.33;;
81894;SDS011;76753;45.642;13.758;2024-03-02T04:46:35;2.55;;;1.30;;
81894;SDS011;76753;45.642;13.758;2024-03-02T04:49:19;1.58;;;1.38;;
81894;SDS011;76753;45.642;13.758;2024-03-02T04:52:04;1.48;;;1.38;;
81894;SDS011;76753;45.642;13.758;2024-03-02T04:54:48;1.30;;;1.20;;
81894;SDS011;76753;45.642;13.758;2024-03-02T04:58:08;1.45;;;1.30;;
81894;SDS011;76753;45.642;13.758;2024-03-02T05:00:52;3.63;;;1.50;;
81894;SDS011;76753;45.642;13.758;2024-03-02T05:03:37;1.23;;;1.10;;
81894;SDS011;76753;45.642;13.758;2024-03-02T05:06:21;1.40;;;1.30;;
81894;SDS011;76753;45.642;13.758;2024-03-02T05:09:07;2.42;;;1.30;;
81894;SDS011;76753;45.642;13.758;2024-03-02T05:11:52;2.85;;;1.17;;
81894;SDS011;76753;45.642;13.758;2024-03-02T05:14:55;1.77;;;1.23;;
81894;SDS011;76753;45.642;13.758;2024-03-02T05:17:40;1.27;;;1.17;;
81894;SDS011;76753;45.642;13.758;2024-03-02T05:20:28;1.20;;;1.10;;
81894;SDS011;76753;45.642;13.758;2024-03-02T05:23:13;1.40;;;1.17;;
81894;SDS011;76753;45.642;13.758;2024-03-02T05:25:57;2.10;;;1.15;;
81894;SDS011;76753;45.642;13.758;2024-03-02T05:28:42;2.35;;;1.40;;
81894;SDS011;76753;45.642;13.758;2024-03-02T05:31:27;2.47;;;1.20;;
81894;SDS011;76753;45.642;13.758;2024-03-02T05:34:11;2.55;;;1.35;;
81894;SDS011;76753;45.642;13.758;2024-03-02T05:36:56;1.90;;;0.90;;
81894;SDS011;76753;45.642;13.758;2024-03-02T05:39:41;1.90;;;1.10;;
81894;SDS011;76753;45.642;13.758;2024-03-02T05:42:27;1.20;;;1.10;;
81894;SDS011;76753;45.642;13.758;2024-03-02T05:45:11;2.03;;;1.30;;
81894;SDS011;76753;45.642;13.758;2024-03-02T05:47:56;1.30;;;1.17;;
81894;SDS011;76753;45.642;13.758;2024-03-02T05:50:41;1.27;;;0.90;;
81894;SDS011;76753;45.642;13.758;2024-03-02T05:53:25;2.22;;;0.95;;
81894;SDS011;76753;45.642;13.758;2024-03-02T05:56:10;1.45;;;1.17;;
81894;SDS011;76753;45.642;13.758;2024-03-02T05:58:55;1.58;;;1.10;;
81894;SDS011;76753;45.642;13.758;2024-03-02T06:01:59;2.50;;;1.20;;
81894;SDS011;76753;45.642;13.758;2024-03-02T06:04:44;1.02;;;0.95;;
81894;SDS011;76753;45.642;13.758;2024-03-02T06:07:28;1.23;;;1.10;;
81894;SDS011;76753;45.642;13.758;2024-03-02T06:10:13;1.20;;;1.10;;
81894;SDS011;76753;45.642;13.758;2024-03-02T06:12:57;1.17;;;1.05;;
81894;SDS011;76753;45.642;13.758;2024-03-02T06:15:43;1.40;;;0.93;;
81894;SDS011;76753;45.642;13.758;2024-03-02T06:18:27;2.28;;;1.33;;
81894;SDS011;76753;45.642;13.758;2024-03-02T06:21:12;0.80;;;0.80;;
81894;SDS011;76753;45.642;13.758;2024-03-02T06:23:56;1.10;;;1.00;;
81894;SDS011;76753;45.642;13.758;2024-03-02T06:26:41;1.40;;;1.30;;
81894;SDS011;76753;45.642;13.758;2024-03-02T06:29:26;3.20;;;1.33;;
81894;SDS011;76753;45.642;13.758;2024-03-02T06:32:10;0.90;;;0.85;;
81894;SDS011;76753;45.642;13.758;2024-03-02T06:34:55;0.90;;;0.90;;
81894;SDS011;76753;45.642;13.758;2024-03-02T06:37:39;1.05;;;0.93;;
81894;SDS011;76753;45.642;13.758;2024-03-02T06:40:24;2.08;;;1.00;;
81894;SDS011;76753;45.642;13.758;2024-03-02T06:43:09;1.95;;;1.00;;
81894;SDS011;76753;45.642;13.758;2024-03-02T06:45:53;3.80;;;1.20;;
81894;SDS011;76753;45.642;13.758;2024-03-02T06:48:38;1.17;;;0.88;;
81894;SDS011;76753;45.642;13.758;2024-03-02T06:51:23;0.60;;;0.60;;
81894;SDS011;76753;45.642;13.758;2024-03-02T06:54:07;0.82;;;0.77;;
81894;SDS011;76753;45.642;13.758;2024-03-02T06:56:52;1.30;;;0.80;;
81894;SDS011;76753;45.642;13.758;2024-03-02T06:59:36;1.10;;;0.80;;
81894;SDS011;76753;45.642;13.758;2024-03-02T07:02:21;2.20;;;1.05;;
81894;SDS011;76753;45.642;13.758;2024-03-02T07:05:06;1.38;;;0.88;;
81894;SDS011;76753;45.642;13.758;2024-03-02T07:07:52;0.95;;;0.80;;
81894;SDS011;76753;45.642;13.758;2024-03-02T07:10:36;1.02;;;0.88;;
81894;SDS011;76753;45.642;13.758;2024-03-02T07:13:21;2.47;;;1.00;;
81894;SDS011;76753;45.642;13.758;2024-03-02T07:16:05;2.03;;;1.27;;
81894;SDS011;76753;45.642;13.758;2024-03-02T07:19:10;1.48;;;1.02;;
81894;SDS011;76753;45.642;13.758;2024-03-02T07:21:54;0.60;;;0.60;;
81894;SDS011;76753;45.642;13.758;2024-03-02T07:24:40;0.93;;;0.90;;
81894;SDS011;76753;45.642;13.758;2024-03-02T07:27:25;1.30;;;0.90;;
81894;SDS011;76753;45.642;13.758;2024-03-02T07:30:13;1.38;;;1.20;;
81894;SDS011;76753;45.642;13.758;2024-03-02T07:32:59;0.88;;;0.80;;
81894;SDS011;76753;45.642;13.758;2024-03-02T07:35:44;0.80;;;0.80;;
81894;SDS011;76753;45.642;13.758;2024-03-02T07:38:29;0.95;;;0.77;;
81894;SDS011;76753;45.642;13.758;2024-03-02T07:41:13;1.83;;;1.00;;
81894;SDS011;76753;45.642;13.758;2024-03-02T07:43:58;1.30;;;1.00;;
81894;SDS011;76753;45.642;13.758;2024-03-02T07:46:42;1.38;;;1.00;;
81894;SDS011;76753;45.642;13.758;2024-03-02T07:49:27;0.70;;;0.70;;
81894;SDS011;76753;45.642;13.758;2024-03-02T07:52:12;2.63;;;1.10;;
81894;SDS011;76753;45.642;13.758;2024-03-02T07:54:57;0.80;;;0.77;;
81894;SDS011;76753;45.642;13.758;2024-03-02T07:57:41;1.15;;;1.00;;
81894;SDS011;76753;45.642;13.758;2024-03-02T08:00:26;1.70;;;1.10;;
81894;SDS011;76753;45.642;13.758;2024-03-02T08:03:13;1.23;;;1.10;;
81894;SDS011;76753;45.642;13.758;2024-03-02T08:05:58;1.30;;;0.90;;
81894;SDS011;76753;45.642;13.758;2024-03-02T08:08:43;3.63;;;1.30;;
81894;SDS011;76753;45.642;13.758;2024-03-02T08:11:27;2.78;;;1.05;;
81894;SDS011;76753;45.642;13.758;2024-03-02T08:14:13;1.67;;;1.38;;
81894;SDS011;76753;45.642;13.758;2024-03-02T08:16:57;1.33;;;1.23;;
81894;SDS011;76753;45.642;13.758;2024-03-02T08:19:42;1.15;;;1.00;;
81894;SDS011;76753;45.642;13.758;2024-03-02T08:22:27;1.67;;;1.15;;
81894;SDS011;76753;45.642;13.758;2024-03-02T08:25:12;1.88;;;1.23;;
81894;SDS011;76753;45.642;13.758;2024-03-02T08:27:56;1.63;;;1.23;;
81894;SDS011;76753;45.642;13.758;2024-03-02T08:30:42;1.70;;;1.13;;
81894;SDS011;76753;45.642;13.758;2024-03-02T08:33:26;2.38;;;1.00;;
81894;SDS011;76753;45.642;13.758;2024-03-02T08:36:11;2.22;;;1.10;;
81894;SDS011;76753;45.642;13.758;2024-03-02T08:38:55;1.35;;;1.17;;
81894;SDS011;76753;45.642;13.758;2024-03-02T08:41:41;2.53;;;1.40;;
81894;SDS011;76753;45.642;13.758;2024-03-02T08:44:27;3.00;;;1.25;;
81894;SDS011;76753;45.642;13.758;2024-03-02T08:47:11;2.05;;;1.23;;
81894;SDS011;76753;45.642;13.758;2024-03-02T08:49:56;2.75;;;1.30;;
81894;SDS011;76753;45.642;13.758;2024-03-02T08:52:41;2.95;;;2.42;;
81894;SDS011;76753;45.642;13.758;2024-03-02T08:55:26;4.35;;;2.85;;
81894;SDS011;76753;45.642;13.758;2024-03-02T08:58:10;4.22;;;1.77;;
81894;SDS011;76753;45.642;13.758;2024-03-02T09:00:55;5.57;;;1.88;;
81894;SDS011;76753;45.642;13.758;2024-03-02T09:03:40;5.40;;;1.85;;
81894;SDS011;76753;45.642;13.758;2024-03-02T09:06:28;7.28;;;2.10;;
81894;SDS011;76753;45.642;13.758;2024-03-02T09:09:12;3.70;;;2.00;;
81894;SDS011;76753;45.642;13.758;2024-03-02T09:11:57;4.15;;;1.90;;
81894;SDS011;76753;45.642;13.758;2024-03-02T09:14:41;5.53;;;2.17;;
81894;SDS011;76753;45.642;13.758;2024-03-02T09:17:26;4.45;;;2.10;;
81894;SDS011;76753;45.642;13.758;2024-03-02T09:20:11;4.38;;;1.75;;
81894;SDS011;76753;45.642;13.758;2024-03-02T09:22:57;4.82;;;1.58;;
81894;SDS011;76753;45.642;13.758;2024-03-02T09:25:41;4.13;;;1.60;;
81894;SDS011;76753;45.642;13.758;2024-03-02T09:28:26;4.72;;;1.67;;
81894;SDS011;76753;45.642;13.758;2024-03-02T09:31:10;4.55;;;1.80;;
81894;SDS011;76753;45.642;13.758;2024-03-02T09:33:56;5.30;;;1.63;;
81894;SDS011;76753;45.642;13.758;2024-03-02T09:36:41;2.13;;;1.67;;
81894;SDS011;76753;45.642;13.758;2024-03-02T09:39:25;3.50;;;1.70;;
81894;SDS011;76753;45.642;13.758;2024-03-02T09:42:10;6.97;;;1.65;;
81894;SDS011;76753;45.642;13.758;2024-03-02T09:44:56;4.50;;;2.13;;
81894;SDS011;76753;45.642;13.758;2024-03-02T09:47:41;2.75;;;1.50;;
81894;SDS011;76753;45.642;13.758;2024-03-02T09:50:25;3.13;;;2.00;;
81894;SDS011;76753;45.642;13.758;2024-03-02T09:53:10;3.60;;;2.25;;
81894;SDS011;76753;45.642;13.758;2024-03-02T09:55:55;2.72;;;2.15;;
81894;SDS011;76753;45.642;13.758;2024-03-02T09:58:40;3.25;;;1.60;;
81894;SDS011;76753;45.642;13.758;2024-03-02T10:01:24;2.75;;;1.77;;
81894;SDS011;76753;45.642;13.758;2024-03-02T10:04:09;1.85;;;1.30;;
81894;SDS011;76753;45.642;13.758;2024-03-02T10:09:58;2.47;;;1.48;;
81894;SDS011;76753;45.642;13.758;2024-03-02T10:13:06;2.15;;;1.58;;
81894;SDS011;76753;45.642;13.758;2024-03-02T10:15:52;2.03;;;1.40;;
81894;SDS011;76753;45.642;13.758;2024-03-02T10:18:36;3.47;;;1.30;;
81894;SDS011;76753;45.642;13.758;2024-03-02T10:21:21;2.20;;;1.52;;
81894;SDS011;76753;45.642;13.758;2024-03-02T10:24:07;2.17;;;1.50;;
81894;SDS011;76753;45.642;13.758;2024-03-02T10:26:52;2.20;;;1.77;;
81894;SDS011;76753;45.642;13.758;2024-03-02T10:29:37;3.30;;;1.83;;
81894;SDS011;76753;45.642;13.758;2024-03-02T10:32:23;4.35;;;2.05;;
81894;SDS011;76753;45.642;13.758;2024-03-02T10:35:08;3.20;;;2.13;;
81894;SDS011;76753;45.642;13.758;2024-03-02T10:37:52;2.58;;;2.03;;
81894;SDS011;76753;45.642;13.758;2024-03-02T10:40:37;1.80;;;1.70;;
81894;SDS011;76753;45.642;13.758;2024-03-02T10:43:21;1.98;;;1.73;;
81894;SDS011;76753;45.642;13.758;2024-03-02T10:46:06;5.50;;;2.13;;
81894;SDS011;76753;45.642;13.758;2024-03-02T10:48:51;3.13;;;1.70;;
81894;SDS011;76753;45.642;13.758;2024-03-02T10:51:35;2.35;;;1.50;;
81894;SDS011;76753;45.642;13.758;2024-03-02T10:54:20;1.88;;;1.55;;
81894;SDS011;76753;45.642;13.758;2024-03-02T10:57:10;3.40;;;1.63;;
81894;SDS011;76753;45.642;13.758;2024-03-02T10:59:57;2.28;;;1.45;;
81894;SDS011;76753;45.642;13.758;2024-03-02T11:02:50;3.45;;;1.30;;
81894;SDS011;76753;45.642;13.758;2024-03-02T11:05:36;2.15;;;1.50;;
81894;SDS011;76753;45.642;13.758;2024-03-02T11:08:24;2.00;;;1.10;;
81894;SDS011;76753;45.642;13.758;2024-03-02T11:11:14;3.70;;;1.85;;
81894;SDS011;76753;45.642;13.758;2024-03-02T11:14:02;6.32;;;2.17;;
81894;SDS011;76753;45.642;13.758;2024-03-02T11:16:52;1.67;;;1.27;;
81894;SDS011;76753;45.642;13.758;2024-03-02T11:19:38;2.75;;;1.35;;
81894;SDS011;76753;45.642;13.758;2024-03-02T11:22:24;3.92;;;1.58;;
81894;SDS011;76753;45.642;13.758;2024-03-02T11:25:23;1.73;;;1.05;;
81894;SDS011;76753;45.642;13.758;2024-03-02T11:28:09;2.45;;;1.27;;
81894;SDS011;76753;45.642;13.758;2024-03-02T11:30:54;3.05;;;1.25;;
81894;SDS011;76753;45.642;13.758;2024-03-02T11:33:38;3.55;;;1.25;;
81894;SDS011;76753;45.642;13.758;2024-03-02T11:36:23;3.33;;;1.70;;
81894;SDS011;76753;45.642;13.758;2024-03-02T11:39:09;2.65;;;1.40;;
81894;SDS011;76753;45.642;13.758;2024-03-02T11:41:53;3.58;;;1.48;;
81894;SDS011;76753;45.642;13.758;2024-03-02T11:44:39;3.42;;;1.23;;
81894;SDS011;76753;45.642;13.758;2024-03-02T11:47:25;3.13;;;1.38;;
81894;SDS011;76753;45.642;13.758;2024-03-02T11:53:13;3.50;;;1.58;;
81894;SDS011;76753;45.642;13.758;2024-03-02T11:55:58;2.10;;;1.30;;
81894;SDS011;76753;45.642;13.758;2024-03-02T11:58:43;2.70;;;1.30;;
81894;SDS011;76753;45.642;13.758;2024-03-02T12:01:28;3.72;;;1.27;;
81894;SDS011;76753;45.642;13.758;2024-03-02T12:04:13;3.78;;;1.52;;
81894;SDS011;76753;45.642;13.758;2024-03-02T12:06:58;3.30;;;1.48;;
81894;SDS011;76753;45.642;13.758;2024-03-02T12:09:43;5.47;;;1.38;;
81894;SDS011;76753;45.642;13.758;2024-03-02T12:12:28;1.75;;;1.15;;
81894;SDS011;76753;45.642;13.758;2024-03-02T12:15:12;2.95;;;1.13;;
81894;SDS011;76753;45.642;13.758;2024-03-02T12:17:58;2.97;;;1.40;;
81894;SDS011;76753;45.642;13.758;2024-03-02T12:20:44;2.03;;;1.10;;
81894;SDS011;76753;45.642;13.758;2024-03-02T12:23:28;1.63;;;0.93;;
81894;SDS011;76753;45.642;13.758;2024-03-02T12:26:13;2.50;;;1.27;;
81894;SDS011;76753;45.642;13.758;2024-03-02T12:28:58;4.55;;;1.75;;
81894;SDS011;76753;45.642;13.758;2024-03-02T12:31:43;2.15;;;1.10;;
81894;SDS011;76753;45.642;13.758;2024-03-02T12:34:29;2.25;;;1.02;;
81894;SDS011;76753;45.642;13.758;2024-03-02T12:37:13;2.95;;;2.03;;
81894;SDS011;76753;45.642;13.758;2024-03-02T12:39:58;4.10;;;2.42;;
81894;SDS011;76753;45.642;13.758;2024-03-02T12:42:43;4.32;;;2.00;;
81894;SDS011;76753;45.642;13.758;2024-03-02T12:45:28;2.75;;;1.60;;
81894;SDS011;76753;45.642;13.758;2024-03-02T12:48:12;2.38;;;1.45;;
81894;SDS011;76753;45.642;13.758;2024-03-02T12:50:57;4.03;;;1.80;;
81894;SDS011;76753;45.642;13.758;2024-03-02T12:53:42;3.55;;;1.70;;
81894;SDS011;76753;45.642;13.758;2024-03-02T12:56:26;1.95;;;1.50;;
81894;SDS011;76753;45.642;13.758;2024-03-02T12:59:18;3.05;;;2.03;;
81894;SDS011;76753;45.642;13.758;2024-03-02T13:02:05;2.47;;;1.80;;
81894;SDS011;76753;45.642;13.758;2024-03-02T13:04:53;6.60;;;2.63;;
81894;SDS011;76753;45.642;13.758;2024-03-02T13:07:38;6.22;;;2.10;;
81894;SDS011;76753;45.642;13.758;2024-03-02T13:10:22;17.50;;;12.18;;
81894;SDS011;76753;45.642;13.758;2024-03-02T13:13:07;10.52;;;5.32;;
81894;SDS011;76753;45.642;13.758;2024-03-02T13:15:55;8.52;;;3.25;;
81894;SDS011;76753;45.642;13.758;2024-03-02T13:18:40;10.55;;;3.70;;
81894;SDS011;76753;45.642;13.758;2024-03-02T13:21:24;7.47;;;3.00;;
81894;SDS011;76753;45.642;13.758;2024-03-02T13:24:09;8.40;;;3.47;;
81894;SDS011;76753;45.642;13.758;2024-03-02T13:26:53;7.18;;;3.38;;
81894;SDS011;76753;45.642;13.758;2024-03-02T13:29:40;7.07;;;2.88;;
81894;SDS011;76753;45.642;13.758;2024-03-02T13:32:25;8.23;;;3.00;;
81894;SDS011;76753;45.642;13.758;2024-03-02T13:35:09;12.00;;;7.95;;
81894;SDS011;76753;45.642;13.758;2024-03-02T13:37:56;8.20;;;4.50;;
81894;SDS011;76753;45.642;13.758;2024-03-02T13:40:41;5.95;;;3.25;;
81894;SDS011;76753;45.642;13.758;2024-03-02T13:43:26;7.43;;;3.20;;
81894;SDS011;76753;45.642;13.758;2024-03-02T13:46:11;4.68;;;3.00;;
81894;SDS011;76753;45.642;13.758;2024-03-02T13:48:55;5.15;;;2.78;;
81894;SDS011;76753;45.642;13.758;2024-03-02T13:51:42;6.25;;;2.70;;
81894;SDS011;76753;45.642;13.758;2024-03-02T13:54:26;5.75;;;2.63;;
81894;SDS011;76753;45.642;13.758;2024-03-02T13:57:11;11.77;;;3.03;;
81894;SDS011;76753;45.642;13.758;2024-03-02T13:59:55;15.57;;;4.90;;
81894;SDS011;76753;45.642;13.758;2024-03-02T14:02:40;7.55;;;2.83;;
81894;SDS011;76753;45.642;13.758;2024-03-02T14:05:25;5.40;;;3.08;;
81894;SDS011;76753;45.642;13.758;2024-03-02T14:08:09;5.43;;;2.80;;
81894;SDS011;76753;45.642;13.758;2024-03-02T14:10:54;7.72;;;4.22;;
81894;SDS011;76753;45.642;13.758;2024-03-02T14:13:41;11.77;;;7.13;;
81894;SDS011;76753;45.642;13.758;2024-03-02T14:16:28;7.93;;;5.95;;
81894;SDS011;76753;45.642;13.758;2024-03-02T14:19:12;6.07;;;4.93;;
81894;SDS011;76753;45.642;13.758;2024-03-02T14:21:57;14.18;;;8.27;;
81894;SDS011;76753;45.642;13.758;2024-03-02T14:24:42;26.17;;;18.05;;
81894;SDS011;76753;45.642;13.758;2024-03-02T14:27:27;31.33;;;21.38;;
81894;SDS011;76753;45.642;13.758;2024-03-02T14:30:12;33.35;;;23.05;;
81894;SDS011;76753;45.642;13.758;2024-03-02T14:32:56;34.00;;;24.25;;
81894;SDS011;76753;45.642;13.758;2024-03-02T14:35:41;32.53;;;22.35;;
81894;SDS011;76753;45.642;13.758;2024-03-02T14:38:25;36.45;;;24.38;;
81894;SDS011;76753;45.642;13.758;2024-03-02T14:41:10;38.72;;;23.70;;
81894;SDS011;76753;45.642;13.758;2024-03-02T14:43:55;29.38;;;20.42;;
81894;SDS011;76753;45.642;13.758;2024-03-02T14:46:39;29.48;;;20.33;;
81894;SDS011;76753;45.642;13.758;2024-03-02T14:49:25;31.02;;;19.98;;
81894;SDS011;76753;45.642;13.758;2024-03-02T14:52:09;26.60;;;15.90;;
81894;SDS011;76753;45.642;13.758;2024-03-02T14:54:54;24.73;;;15.98;;
81894;SDS011;76753;45.642;13.758;2024-03-02T14:57:38;21.83;;;14.88;;
81894;SDS011;76753;45.642;13.758;2024-03-02T15:00:23;19.92;;;13.35;;
81894;SDS011;76753;45.642;13.758;2024-03-02T15:03:07;24.50;;;13.57;;
81894;SDS011;76753;45.642;13.758;2024-03-02T15:05:52;19.40;;;11.68;;
81894;SDS011;76753;45.642;13.758;2024-03-02T15:08:37;19.17;;;11.38;;
81894;SDS011;76753;45.642;13.758;2024-03-02T15:11:21;14.75;;;10.43;;
81894;SDS011;76753;45.642;13.758;2024-03-02T15:14:06;15.32;;;9.80;;
81894;SDS011;76753;45.642;13.758;2024-03-02T15:16:51;15.93;;;9.95;;
81894;SDS011;76753;45.642;13.758;2024-03-02T15:19:35;14.77;;;9.02;;
81894;SDS011;76753;45.642;13.758;2024-03-02T15:22:20;16.10;;;9.48;;
81894;SDS011;76753;45.642;13.758;2024-03-02T15:25:04;14.85;;;8.35;;
81894;SDS011;76753;45.642;13.758;2024-03-02T15:27:49;14.27;;;8.10;;
81894;SDS011;76753;45.642;13.758;2024-03-02T15:30:34;12.13;;;7.13;;
81894;SDS011;76753;45.642;13.758;2024-03-02T15:33:18;7.90;;;6.35;;
81894;SDS011;76753;45.642;13.758;2024-03-02T15:36:03;10.52;;;6.95;;
81894;SDS011;76753;45.642;13.758;2024-03-02T15:38:48;9.25;;;6.15;;
81894;SDS011;76753;45.642;13.758;2024-03-02T15:41:33;9.25;;;5.53;;
81894;SDS011;76753;45.642;13.758;2024-03-02T15:44:17;9.02;;;5.22;;
81894;SDS011;76753;45.642;13.758;2024-03-02T15:47:02;9.13;;;5.57;;
81894;SDS011;76753;45.642;13.758;2024-03-02T15:49:46;6.82;;;5.20;;
81894;SDS011;76753;45.642;13.758;2024-03-02T15:52:31;7.43;;;5.07;;
81894;SDS011;76753;45.642;13.758;2024-03-02T15:55:15;8.60;;;4.40;;
81894;SDS011;76753;45.642;13.758;2024-03-02T15:58:01;6.03;;;3.75;;
81894;SDS011;76753;45.642;13.758;2024-03-02T16:00:49;4.20;;;3.45;;
81894;SDS011;76753;45.642;13.758;2024-03-02T16:03:33;7.25;;;5.25;;
81894;SDS011;76753;45.642;13.758;2024-03-02T16:06:18;6.13;;;4.22;;
81894;SDS011;76753;45.642;13.758;2024-03-02T16:09:02;6.05;;;4.07;;
81894;SDS011;76753;45.642;13.758;2024-03-02T16:11:48;6.70;;;4.50;;
81894;SDS011;76753;45.642;13.758;2024-03-02T16:14:33;7.32;;;4.13;;
81894;SDS011;76753;45.642;13.758;2024-03-02T16:17:19;6.40;;;4.20;;
81894;SDS011;76753;45.642;13.758;2024-03-02T16:20:04;10.07;;;5.22;;
81894;SDS011;76753;45.642;13.758;2024-03-02T16:22:49;4.30;;;3.45;;
81894;SDS011;76753;45.642;13.758;2024-03-02T16:25:34;8.40;;;4.78;;
81894;SDS011;76753;45.642;13.758;2024-03-02T16:28:21;5.80;;;3.85;;
81894;SDS011;76753;45.642;13.758;2024-03-02T16:31:27;5.88;;;4.07;;